Time;durP1;ratioP1;P1;durP2;ratioP2;P2;SDS_P1;SDS_P2;PMS_P1;PMS_P2;Temp;Humidity;BMP_temperature;BMP_pressure;BME280_temperature;BME280_humidity;BME280_pressure;Samples;Min_cycle;Max_cycle;Signal;HPM_P1;HPM_P2
2020/12/13 00:00:29;;;;;;;10.37;7.77;;;;;;;;;;5053982;28;20185;-65
2020/12/13 00:02:56;;;;;;;10.13;7.80;;;;;;;;;;5053647;28;20178;-65
2020/12/13 00:05:22;;;;;;;11.60;7.90;;;;;;;;;;5053446;28;20230;-65
2020/12/13 00:07:49;;;;;;;9.93;7.80;;;;;;;;;;5053654;28;20210;-66
2020/12/13 00:10:15;;;;;;;10.97;7.70;;;;;;;;;;5053623;28;20209;-65
2020/12/13 00:12:40;;;;;;;9.83;7.20;;;;;;;;;;5054253;28;20178;-64
2020/12/13 00:15:05;;;;;;;8.63;7.33;;;;;;;;;;5053683;28;20174;-65
2020/12/13 00:17:31;;;;;;;9.10;7.13;;;;;;;;;;5053445;28;20182;-65
2020/12/13 00:19:57;;;;;;;9.80;7.60;;;;;;;;;;5052174;28;20244;-65
2020/12/13 00:22:22;;;;;;;9.43;7.27;;;;;;;;;;5053515;28;20186;-65
2020/12/13 00:24:47;;;;;;;9.03;7.43;;;;;;;;;;5053506;28;20182;-65
2020/12/13 00:27:14;;;;;;;11.63;7.07;;;;;;;;;;5053405;28;20536;-65
2020/12/13 00:29:39;;;;;;;10.60;7.23;;;;;;;;;;5053292;28;20189;-65
2020/12/13 00:32:04;;;;;;;8.80;7.13;;;;;;;;;;5053615;28;20541;-63
2020/12/13 00:34:31;;;;;;;8.60;6.47;;;;;;;;;;5053304;28;20269;-63
2020/12/13 00:36:57;;;;;;;8.37;7.30;;;;;;;;;;5053405;28;20201;-64
2020/12/13 00:39:22;;;;;;;9.10;7.37;;;;;;;;;;5053569;28;20518;-64
2020/12/13 00:41:49;;;;;;;9.43;7.67;;;;;;;;;;5053472;28;20247;-63
2020/12/13 00:44:14;;;;;;;9.13;7.37;;;;;;;;;;5052135;28;20174;-64
2020/12/13 00:46:39;;;;;;;9.17;6.50;;;;;;;;;;5053191;28;20189;-65
2020/12/13 00:49:05;;;;;;;8.73;6.77;;;;;;;;;;5053250;28;20184;-64
2020/12/13 00:51:30;;;;;;;8.47;6.67;;;;;;;;;;5053189;28;20236;-64
2020/12/13 00:53:56;;;;;;;9.07;7.03;;;;;;;;;;5053195;28;20216;-64
2020/12/13 00:56:21;;;;;;;8.37;6.60;;;;;;;;;;5053335;28;20206;-65
2020/12/13 00:58:46;;;;;;;7.50;6.20;;;;;;;;;;5054856;28;20174;-64
2020/12/13 01:01:11;;;;;;;8.60;7.03;;;;;;;;;;5057620;28;20205;-65
2020/12/13 01:03:37;;;;;;;7.73;6.10;;;;;;;;;;5057078;28;20232;-65
2020/12/13 01:06:02;;;;;;;8.33;6.87;;;;;;;;;;5056878;28;20624;-64
2020/12/13 01:08:27;;;;;;;8.00;6.70;;;;;;;;;;5057611;28;20181;-65
2020/12/13 01:10:53;;;;;;;8.27;6.87;;;;;;;;;;5056969;28;20174;-65
2020/12/13 01:13:18;;;;;;;8.90;6.90;;;;;;;;;;5057295;28;20681;-63
2020/12/13 01:15:43;;;;;;;8.33;6.60;;;;;;;;;;5056782;28;20206;-65
2020/12/13 01:18:09;;;;;;;11.57;6.87;;;;;;;;;;5056937;28;20667;-62
2020/12/13 01:20:34;;;;;;;7.50;6.30;;;;;;;;;;5056769;28;20174;-64
2020/12/13 01:22:59;;;;;;;6.63;5.77;;;;;;;;;;5056775;28;20182;-64
2020/12/13 01:25:25;;;;;;;8.30;6.77;;;;;;;;;;5056728;28;20174;-64
2020/12/13 01:27:50;;;;;;;8.27;6.30;;;;;;;;;;5055668;28;20343;-65
2020/12/13 01:30:15;;;;;;;7.90;6.23;;;;;;;;;;5056588;28;20210;-65
2020/12/13 01:32:42;;;;;;;7.37;6.13;;;;;;;;;;5056763;28;20667;-65
2020/12/13 01:35:09;;;;;;;7.83;5.87;;;;;;;;;;5056684;28;20182;-64
2020/12/13 01:37:35;;;;;;;7.10;6.23;;;;;;;;;;5056485;28;20182;-63
2020/12/13 01:40:00;;;;;;;6.93;5.90;;;;;;;;;;5056632;28;20289;-63
2020/12/13 01:42:26;;;;;;;7.07;6.33;;;;;;;;;;5056347;28;20257;-64
2020/12/13 01:44:51;;;;;;;7.83;6.20;;;;;;;;;;5056533;28;20631;-65
2020/12/13 01:47:18;;;;;;;6.47;5.80;;;;;;;;;;5056252;28;20533;-64
2020/12/13 01:49:46;;;;;;;8.03;6.47;;;;;;;;;;5056425;28;20585;-64
2020/12/13 01:54:55;;;;;;;6.20;5.53;;;;;;;;;;5056447;28;20169;-65
2020/12/13 01:57:23;;;;;;;7.70;6.10;;;;;;;;;;5056357;28;20170;-66
2020/12/13 01:59:51;;;;;;;6.40;5.63;;;;;;;;;;5055979;28;20590;-64
2020/12/13 02:02:22;;;;;;;8.07;6.37;;;;;;;;;;5094216;22;20251;-66
2020/12/13 02:04:52;;;;;;;7.60;6.20;;;;;;;;;;5096283;28;20200;-66
2020/12/13 02:07:19;;;;;;;8.67;5.90;;;;;;;;;;5096169;28;20165;-65
2020/12/13 02:09:44;;;;;;;7.93;5.87;;;;;;;;;;5095225;28;20589;-66
2020/12/13 02:12:09;;;;;;;6.50;5.63;;;;;;;;;;5095950;28;20200;-66
2020/12/13 02:14:35;;;;;;;7.57;6.57;;;;;;;;;;5096139;28;20173;-66
2020/12/13 02:17:00;;;;;;;7.10;5.87;;;;;;;;;;5095916;28;20188;-66
2020/12/13 02:19:25;;;;;;;7.57;6.03;;;;;;;;;;5096190;28;20184;-66
2020/12/13 02:21:51;;;;;;;6.77;5.93;;;;;;;;;;5095945;28;20173;-66
2020/12/13 02:24:18;;;;;;;7.30;5.97;;;;;;;;;;5095692;28;20264;-66
2020/12/13 02:26:45;;;;;;;6.93;5.80;;;;;;;;;;5095761;28;20180;-65
2020/12/13 02:29:11;;;;;;;8.63;6.40;;;;;;;;;;5095948;28;20230;-67
2020/12/13 02:31:36;;;;;;;7.00;5.90;;;;;;;;;;5095770;28;20177;-65
2020/12/13 02:34:03;;;;;;;7.57;6.07;;;;;;;;;;5095604;28;20648;-67
2020/12/13 02:36:29;;;;;;;5.47;4.97;;;;;;;;;;5095556;28;20215;-67
2020/12/13 02:38:55;;;;;;;6.57;5.63;;;;;;;;;;5095498;28;20608;-67
2020/12/13 02:41:20;;;;;;;7.33;5.87;;;;;;;;;;5095534;28;20208;-66
2020/12/13 02:43:46;;;;;;;7.00;5.83;;;;;;;;;;5095671;28;20577;-67
2020/12/13 02:46:11;;;;;;;6.53;5.77;;;;;;;;;;5095401;28;20698;-67
2020/12/13 02:48:36;;;;;;;5.80;5.20;;;;;;;;;;5095262;28;20287;-66
2020/12/13 02:51:02;;;;;;;6.17;5.47;;;;;;;;;;5095577;28;20169;-66
2020/12/13 02:53:27;;;;;;;6.50;5.73;;;;;;;;;;5095269;28;20188;-66
2020/12/13 02:55:52;;;;;;;6.30;5.57;;;;;;;;;;5095118;28;20216;-66
2020/12/13 02:58:18;;;;;;;6.27;5.60;;;;;;;;;;5095142;28;20188;-67
2020/12/13 03:00:43;;;;;;;5.83;5.17;;;;;;;;;;5094810;28;20228;-66
2020/12/13 03:03:08;;;;;;;6.77;5.23;;;;;;;;;;5095190;28;20176;-67
2020/12/13 03:05:33;;;;;;;6.40;5.80;;;;;;;;;;5095385;28;20172;-67
2020/12/13 03:07:59;;;;;;;5.80;5.20;;;;;;;;;;5094993;28;20207;-67
2020/12/13 03:10:24;;;;;;;5.57;4.97;;;;;;;;;;5094970;28;20629;-67
2020/12/13 03:12:49;;;;;;;6.00;5.40;;;;;;;;;;5094974;28;20168;-66
2020/12/13 03:15:15;;;;;;;6.10;5.50;;;;;;;;;;5094724;28;20188;-67
2020/12/13 03:17:41;;;;;;;6.23;5.37;;;;;;;;;;5094709;28;20192;-67
2020/12/13 03:20:06;;;;;;;6.57;4.97;;;;;;;;;;5094986;28;20579;-66
2020/12/13 03:22:31;;;;;;;5.80;5.20;;;;;;;;;;5094623;28;20207;-67
2020/12/13 03:24:57;;;;;;;6.00;5.40;;;;;;;;;;5094901;28;20177;-67
2020/12/13 03:27:24;;;;;;;7.37;6.33;;;;;;;;;;5094603;28;20628;-67
2020/12/13 03:29:50;;;;;;;5.80;5.20;;;;;;;;;;5094753;28;20590;-66
2020/12/13 03:32:16;;;;;;;5.80;5.13;;;;;;;;;;5094427;28;20259;-66
2020/12/13 03:34:41;;;;;;;6.17;5.40;;;;;;;;;;5094577;28;20172;-67
2020/12/13 03:37:07;;;;;;;5.83;5.20;;;;;;;;;;5094362;28;20653;-66
2020/12/13 03:39:32;;;;;;;5.73;5.13;;;;;;;;;;5094663;28;20181;-66
2020/12/13 03:41:57;;;;;;;5.83;5.20;;;;;;;;;;5094352;28;20183;-67
2020/12/13 03:44:22;;;;;;;5.97;5.10;;;;;;;;;;5094297;28;20655;-66
2020/12/13 03:46:48;;;;;;;6.17;5.53;;;;;;;;;;5094308;28;20214;-66
2020/12/13 03:49:14;;;;;;;6.57;4.90;;;;;;;;;;5094500;28;20525;-66
2020/12/13 03:51:39;;;;;;;6.47;4.77;;;;;;;;;;5094127;28;20226;-66
2020/12/13 03:54:04;;;;;;;5.50;4.93;;;;;;;;;;5094133;28;20187;-66
2020/12/13 03:56:30;;;;;;;6.10;5.23;;;;;;;;;;5093957;28;20709;-66
2020/12/13 03:58:55;;;;;;;5.70;5.10;;;;;;;;;;5094284;28;20177;-67
2020/12/13 04:01:20;;;;;;;5.30;4.80;;;;;;;;;;5093877;28;20216;-67
2020/12/13 04:03:46;;;;;;;5.93;5.23;;;;;;;;;;5094116;28;20192;-67
2020/12/13 04:06:11;;;;;;;5.50;4.90;;;;;;;;;;5093954;28;20181;-67
2020/12/13 04:08:36;;;;;;;6.17;5.20;;;;;;;;;;5093978;28;20255;-66
2020/12/13 04:11:02;;;;;;;5.40;4.90;;;;;;;;;;5093840;28;20177;-66
2020/12/13 04:13:28;;;;;;;5.47;4.70;;;;;;;;;;5093869;28;20192;-66
2020/12/13 04:15:53;;;;;;;5.73;5.10;;;;;;;;;;5093751;28;20192;-66
2020/12/13 04:18:18;;;;;;;5.83;5.03;;;;;;;;;;5093769;28;20181;-65
2020/12/13 04:20:44;;;;;;;5.50;4.70;;;;;;;;;;5093680;28;20242;-66
2020/12/13 04:23:09;;;;;;;5.53;4.93;;;;;;;;;;5093924;28;20181;-66
2020/12/13 04:25:34;;;;;;;5.77;4.87;;;;;;;;;;5093673;28;20172;-66
2020/12/13 04:27:59;;;;;;;5.70;5.10;;;;;;;;;;5093617;28;20230;-66
2020/12/13 04:30:25;;;;;;;6.23;5.07;;;;;;;;;;5093626;28;20172;-66
2020/12/13 04:32:50;;;;;;;5.70;4.90;;;;;;;;;;5093107;28;20168;-67
2020/12/13 04:35:15;;;;;;;5.17;4.67;;;;;;;;;;5093489;28;20173;-67
2020/12/13 04:37:41;;;;;;;5.90;4.90;;;;;;;;;;5093801;28;20215;-67
2020/12/13 04:40:06;;;;;;;5.57;4.60;;;;;;;;;;5093665;28;20182;-67
2020/12/13 04:42:35;;;;;;;5.27;4.47;;;;;;;;;;5093710;28;20514;-67
2020/12/13 04:45:01;;;;;;;5.03;4.53;;;;;;;;;;5093683;28;20173;-66
2020/12/13 04:47:29;;;;;;;6.27;5.13;;;;;;;;;;5093474;28;20222;-67
2020/12/13 04:49:55;;;;;;;5.80;4.90;;;;;;;;;;5093618;28;20169;-67
2020/12/13 04:52:20;;;;;;;5.73;4.70;;;;;;;;;;5093554;28;20700;-66
2020/12/13 04:54:50;;;;;;;6.53;4.83;;;;;;;;;;5093982;28;20192;-67
2020/12/13 04:57:20;;;;;;;5.67;5.07;;;;;;;;;;5093301;28;20185;-66
2020/12/13 04:59:49;;;;;;;4.93;4.43;;;;;;;;;;5093471;28;20204;-67
2020/12/13 05:02:15;;;;;;;5.20;4.70;;;;;;;;;;5093062;28;20227;-65
2020/12/13 05:04:42;;;;;;;6.00;4.90;;;;;;;;;;5093596;28;20172;-66
2020/12/13 05:07:08;;;;;;;5.83;5.23;;;;;;;;;;5093196;28;20173;-66
2020/12/13 05:09:34;;;;;;;5.67;5.00;;;;;;;;;;5093320;28;20172;-66
2020/12/13 05:11:59;;;;;;;5.50;4.40;;;;;;;;;;5093184;28;20173;-66
2020/12/13 05:14:25;;;;;;;4.83;4.33;;;;;;;;;;5093226;28;20211;-66
2020/12/13 05:17:05;;;;;;;5.50;4.70;;;;;;;;;;5093322;28;20263;-66
2020/12/13 05:19:31;;;;;;;5.60;4.63;;;;;;;;;;5093439;28;20302;-67
2020/12/13 05:21:57;;;;;;;4.97;4.47;;;;;;;;;;5093118;28;20263;-66
2020/12/13 05:24:23;;;;;;;5.17;4.67;;;;;;;;;;5093124;28;20219;-66
2020/12/13 05:27:06;;;;;;;5.20;4.70;;;;;;;;;;5093082;28;20201;-66
2020/12/13 05:29:35;;;;;;;5.37;4.47;;;;;;;;;;5093106;28;20623;-66
2020/12/13 05:32:19;;;;;;;5.97;4.70;;;;;;;;;;5093252;28;20177;-66
2020/12/13 05:34:47;;;;;;;5.43;4.87;;;;;;;;;;5093361;28;20161;-66
2020/12/13 05:37:16;;;;;;;5.07;4.57;;;;;;;;;;5093092;28;20225;-67
2020/12/13 05:39:50;;;;;;;4.73;4.23;;;;;;;;;;5093517;28;20203;-66
2020/12/13 05:42:35;;;;;;;5.03;4.53;;;;;;;;;;5092987;28;20271;-67
2020/12/13 05:52:44;;;;;;;5.17;4.30;;;;;;;;;;5096836;28;20173;-66
2020/12/13 05:55:11;;;;;;;4.73;4.23;;;;;;;;;;5096608;28;20187;-67
2020/12/13 05:57:37;;;;;;;5.10;4.60;;;;;;;;;;5096634;28;20304;-67
2020/12/13 06:00:05;;;;;;;4.77;4.10;;;;;;;;;;5096304;28;20181;-67
2020/12/13 06:02:31;;;;;;;5.07;4.43;;;;;;;;;;5096138;28;20692;-67
2020/12/13 06:05:02;;;;;;;4.70;4.20;;;;;;;;;;5096388;28;20250;-67
2020/12/13 06:07:33;;;;;;;5.20;4.30;;;;;;;;;;5096679;28;20153;-67
2020/12/13 06:10:06;;;;;;;5.20;4.70;;;;;;;;;;5096423;28;20172;-67
2020/12/13 06:12:32;;;;;;;5.60;5.00;;;;;;;;;;5096460;28;20179;-67
2020/12/13 06:14:59;;;;;;;4.90;4.40;;;;;;;;;;5096116;28;20172;-68
2020/12/13 06:17:25;;;;;;;5.83;4.90;;;;;;;;;;5095876;28;20188;-67
2020/12/13 06:19:52;;;;;;;5.77;4.27;;;;;;;;;;5096380;28;20183;-66
2020/12/13 06:22:20;;;;;;;5.03;4.53;;;;;;;;;;5096552;28;20545;-66
2020/12/13 06:24:46;;;;;;;4.87;4.37;;;;;;;;;;5096124;28;20176;-67
2020/12/13 06:27:12;;;;;;;5.20;4.63;;;;;;;;;;5096057;28;20180;-67
2020/12/13 06:29:37;;;;;;;5.10;4.60;;;;;;;;;;5095878;28;20641;-67
2020/12/13 06:32:02;;;;;;;5.10;4.60;;;;;;;;;;5095745;28;20267;-67
2020/12/13 06:34:30;;;;;;;5.33;4.43;;;;;;;;;;5095674;28;20228;-66
2020/12/13 06:36:57;;;;;;;5.43;4.43;;;;;;;;;;5095717;28;20698;-66
2020/12/13 06:39:22;;;;;;;5.20;4.67;;;;;;;;;;5095766;28;20227;-67
2020/12/13 06:41:50;;;;;;;5.07;4.57;;;;;;;;;;5095596;28;20640;-66
2020/12/13 06:44:17;;;;;;;5.20;4.70;;;;;;;;;;5095390;28;20275;-67
2020/12/13 06:46:44;;;;;;;5.10;4.17;;;;;;;;;;5095423;28;20553;-66
2020/12/13 06:49:12;;;;;;;5.50;4.70;;;;;;;;;;5095528;28;20165;-67
2020/12/13 06:51:41;;;;;;;4.90;4.40;;;;;;;;;;5095287;28;20184;-66
2020/12/13 06:54:09;;;;;;;4.43;3.93;;;;;;;;;;5095237;28;20730;-66
2020/12/13 06:56:35;;;;;;;5.07;4.53;;;;;;;;;;5094913;28;20193;-66
2020/12/13 06:59:04;;;;;;;4.90;4.40;;;;;;;;;;5095383;28;20180;-67
2020/12/13 07:01:36;;;;;;;5.00;4.33;;;;;;;;;;5094862;28;20226;-67
2020/12/13 07:04:20;;;;;;;4.43;4.03;;;;;;;;;;5095342;28;20164;-67
2020/12/13 07:06:46;;;;;;;5.10;4.30;;;;;;;;;;5095043;28;20587;-66
2020/12/13 07:09:13;;;;;;;5.03;4.57;;;;;;;;;;5095189;28;20181;-67
2020/12/13 07:11:43;;;;;;;4.80;4.13;;;;;;;;;;5095131;28;20173;-67
2020/12/13 07:14:12;;;;;;;4.97;4.47;;;;;;;;;;5094838;28;20156;-67
2020/12/13 07:16:42;;;;;;;5.27;4.77;;;;;;;;;;5094984;28;20192;-67
2020/12/13 07:19:10;;;;;;;4.73;4.23;;;;;;;;;;5094799;28;20660;-67
2020/12/13 07:21:38;;;;;;;5.00;4.47;;;;;;;;;;5094769;28;20173;-66
2020/12/13 07:24:05;;;;;;;4.90;4.20;;;;;;;;;;5094750;28;20251;-66
2020/12/13 07:26:32;;;;;;;5.00;4.50;;;;;;;;;;5094595;28;20176;-66
2020/12/13 07:28:59;;;;;;;5.00;4.50;;;;;;;;;;5094938;28;20184;-67
2020/12/13 07:31:27;;;;;;;4.97;4.47;;;;;;;;;;5094681;28;20230;-66
2020/12/13 07:33:53;;;;;;;4.77;4.30;;;;;;;;;;5095237;28;20196;-68
2020/12/13 07:36:19;;;;;;;4.87;4.40;;;;;;;;;;5094470;28;20647;-67
2020/12/13 07:38:45;;;;;;;5.27;4.77;;;;;;;;;;5094411;28;20204;-66
2020/12/13 07:41:20;;;;;;;5.03;4.50;;;;;;;;;;5094318;28;20255;-66
2020/12/13 07:43:59;;;;;;;4.70;4.20;;;;;;;;;;5094735;28;20160;-66
2020/12/13 07:46:26;;;;;;;5.50;4.60;;;;;;;;;;5094601;28;20299;-66
2020/12/13 07:49:07;;;;;;;4.90;4.40;;;;;;;;;;5094894;28;20247;-66
2020/12/13 07:51:33;;;;;;;5.47;4.70;;;;;;;;;;5094639;28;20180;-66
2020/12/13 07:54:10;;;;;;;5.20;4.53;;;;;;;;;;5094409;28;20632;-66
2020/12/13 07:56:35;;;;;;;5.37;4.73;;;;;;;;;;5094113;28;20203;-67
2020/12/13 07:59:23;;;;;;;5.77;4.97;;;;;;;;;;5094205;28;20538;-66
2020/12/13 08:01:50;;;;;;;4.50;3.83;;;;;;;;;;5093804;28;20592;-66
2020/12/13 08:04:29;;;;;;;5.00;4.50;;;;;;;;;;5093885;28;20204;-66
2020/12/13 08:07:02;;;;;;;5.27;4.50;;;;;;;;;;5094291;28;20157;-66
2020/12/13 08:09:27;;;;;;;4.93;4.40;;;;;;;;;;5093252;28;20169;-66
2020/12/13 08:11:53;;;;;;;5.17;4.40;;;;;;;;;;5094193;28;20258;-66
2020/12/13 08:14:24;;;;;;;5.90;4.80;;;;;;;;;;5093830;28;20633;-67
2020/12/13 08:16:53;;;;;;;4.70;4.17;;;;;;;;;;5093989;28;20589;-66
2020/12/13 08:19:28;;;;;;;5.50;4.50;;;;;;;;;;5093702;28;20263;-67
2020/12/13 08:22:19;;;;;;;5.30;4.47;;;;;;;;;;5093651;28;20168;-67
2020/12/13 08:24:52;;;;;;;5.03;4.20;;;;;;;;;;5093580;28;20177;-67
2020/12/13 08:27:18;;;;;;;4.90;4.40;;;;;;;;;;5093667;28;20190;-67
2020/12/13 08:29:44;;;;;;;5.13;4.63;;;;;;;;;;5093561;28;20180;-67
2020/12/13 08:32:14;;;;;;;5.00;4.47;;;;;;;;;;5092338;28;20641;-67
2020/12/13 08:34:40;;;;;;;5.27;4.60;;;;;;;;;;5093769;28;20259;-66
2020/12/13 08:37:05;;;;;;;4.80;4.30;;;;;;;;;;5093405;28;20283;-66
2020/12/13 08:39:33;;;;;;;6.80;5.23;;;;;;;;;;5093415;28;20177;-65
2020/12/13 08:41:59;;;;;;;5.00;4.50;;;;;;;;;;5093397;28;20199;-67
2020/12/13 08:44:30;;;;;;;5.50;4.90;;;;;;;;;;5093517;28;20179;-68
2020/12/13 08:46:58;;;;;;;5.27;4.77;;;;;;;;;;5093665;28;20161;-67
2020/12/13 08:49:34;;;;;;;5.40;4.90;;;;;;;;;;5093335;28;20211;-67
2020/12/13 08:52:20;;;;;;;6.50;5.23;;;;;;;;;;5093514;28;20161;-67
2020/12/13 08:54:53;;;;;;;5.10;4.60;;;;;;;;;;5093768;28;20165;-67
2020/12/13 08:57:36;;;;;;;9.50;5.60;;;;;;;;;;5093560;28;20592;-67
2020/12/13 09:00:19;;;;;;;5.17;4.67;;;;;;;;;;5093657;28;20165;-69
2020/12/13 09:02:58;;;;;;;5.00;4.40;;;;;;;;;;5093413;28;20192;-70
2020/12/13 09:05:29;;;;;;;5.13;4.63;;;;;;;;;;5093603;28;20271;-69
2020/12/13 09:07:56;;;;;;;4.70;4.20;;;;;;;;;;5093434;28;20222;-69
2020/12/13 09:10:21;;;;;;;5.37;4.70;;;;;;;;;;5093538;28;20177;-69
2020/12/13 09:12:47;;;;;;;9.50;4.50;;;;;;;;;;5093182;28;20633;-69
2020/12/13 09:15:15;;;;;;;7.90;5.10;;;;;;;;;;5093448;28;20179;-65
2020/12/13 09:17:51;;;;;;;11.73;10.07;;;;;;;;;;5092901;28;20177;-67
2020/12/13 09:20:23;;;;;;;14.37;11.77;;;;;;;;;;5095549;28;20157;-65
2020/12/13 09:22:58;;;;;;;16.13;12.13;;;;;;;;;;5097276;28;20157;-64
2020/12/13 09:25:23;;;;;;;17.37;13.10;;;;;;;;;;5097083;28;20629;-66
2020/12/13 09:27:49;;;;;;;15.00;11.20;;;;;;;;;;5096945;28;20169;-65
2020/12/13 09:30:14;;;;;;;12.37;9.77;;;;;;;;;;5097257;28;20532;-66
2020/12/13 09:32:39;;;;;;;13.70;8.27;;;;;;;;;;5096828;28;20188;-66
2020/12/13 09:35:04;;;;;;;9.30;7.20;;;;;;;;;;5096778;28;20255;-65
2020/12/13 09:37:30;;;;;;;9.77;6.50;;;;;;;;;;5096705;28;20189;-66
2020/12/13 09:39:55;;;;;;;7.87;5.67;;;;;;;;;;5095462;28;20724;-63
2020/12/13 09:42:20;;;;;;;8.87;6.50;;;;;;;;;;5097046;28;20195;-61
2020/12/13 09:44:49;;;;;;;8.73;6.40;;;;;;;;;;5096704;28;20255;-64
2020/12/13 09:47:14;;;;;;;10.93;6.00;;;;;;;;;;5096512;28;20180;-64
2020/12/13 09:49:40;;;;;;;8.20;6.30;;;;;;;;;;5096653;28;20252;-63
2020/12/13 09:52:05;;;;;;;8.20;5.90;;;;;;;;;;5096488;28;20204;-64
2020/12/13 09:54:31;;;;;;;10.00;6.57;;;;;;;;;;5096381;28;20596;-63
2020/12/13 09:56:57;;;;;;;8.60;6.70;;;;;;;;;;5096349;28;20243;-63
2020/12/13 09:59:23;;;;;;;7.17;5.83;;;;;;;;;;5096362;28;20185;-63
2020/12/13 10:01:49;;;;;;;7.57;5.53;;;;;;;;;;5096009;28;20228;-64
2020/12/13 10:04:16;;;;;;;8.50;5.60;;;;;;;;;;5096440;28;20230;-63
2020/12/13 10:09:14;;;;;;;6.80;5.77;;;;;;;;;;5096302;28;20523;-65
2020/12/13 10:11:42;;;;;;;7.13;5.83;;;;;;;;;;5096387;28;20177;-63
2020/12/13 10:14:11;;;;;;;7.13;5.80;;;;;;;;;;5096314;28;20627;-64
2020/12/13 10:16:39;;;;;;;6.83;5.70;;;;;;;;;;5095881;28;20211;-64
2020/12/13 10:19:04;;;;;;;6.15;5.15;;;;;;;;;;5095894;28;20188;-64
2020/12/13 10:21:31;;;;;;;5.73;4.90;;;;;;;;;;5096130;28;20199;-64
2020/12/13 10:23:57;;;;;;;8.00;5.23;;;;;;;;;;5095844;28;20535;-64
2020/12/13 10:26:25;;;;;;;10.73;5.50;;;;;;;;;;5095813;28;20172;-63
2020/12/13 10:28:51;;;;;;;5.57;4.87;;;;;;;;;;5096081;28;20649;-63
2020/12/13 10:31:17;;;;;;;6.10;5.07;;;;;;;;;;5094903;28;20173;-63
2020/12/13 10:33:43;;;;;;;5.88;4.88;;;;;;;;;;5096000;28;20655;-64
2020/12/13 10:36:13;;;;;;;6.40;5.30;;;;;;;;;;5095877;28;20192;-64
2020/12/13 10:38:39;;;;;;;5.50;4.93;;;;;;;;;;5095638;28;20173;-64
2020/12/13 10:41:09;;;;;;;6.13;5.13;;;;;;;;;;5095531;28;20176;-63
2020/12/13 10:43:35;;;;;;;5.77;4.80;;;;;;;;;;5095557;28;20184;-64
2020/12/13 10:46:02;;;;;;;6.13;5.27;;;;;;;;;;5095495;28;20230;-64
2020/12/13 10:48:27;;;;;;;7.65;5.47;;;;;;;;;;5095332;28;20225;-64
2020/12/13 10:50:52;;;;;;;10.53;5.63;;;;;;;;;;5095484;28;20185;-64
2020/12/13 10:53:18;;;;;;;7.57;5.30;;;;;;;;;;5095382;28;20173;-66
2020/12/13 10:55:43;;;;;;;9.73;5.50;;;;;;;;;;5095434;28;20250;-65
2020/12/13 10:58:08;;;;;;;10.53;6.37;;;;;;;;;;5095205;28;20177;-66
2020/12/13 11:00:34;;;;;;;11.57;6.10;;;;;;;;;;5094841;28;20507;-67
2020/12/13 11:02:59;;;;;;;10.50;6.20;;;;;;;;;;5095220;28;20175;-66
